sensor_id;sensor_type;location;lat;lon;timestamp;pressure;altitude;pressure_sealevel;temperature;humidity
23574;BME280;11965;53.640;10.050;2023-12-07T00:02:14;101577.91;;;0.25;100.00
23574;BME280;11965;53.640;10.050;2023-12-07T00:04:43;101583.56;;;0.34;100.00
23574;BME280;11965;53.640;10.050;2023-12-07T00:07:10;101590.78;;;0.22;100.00
23574;BME280;11965;53.640;10.050;2023-12-07T00:09:37;101585.75;;;0.29;100.00
23574;BME280;11965;53.640;10.050;2023-12-07T00:12:04;101588.69;;;0.39;100.00
23574;BME280;11965;53.640;10.050;2023-12-07T00:14:31;101584.00;;;0.28;100.00
23574;BME280;11965;53.640;10.050;2023-12-07T00:16:58;101591.88;;;0.20;100.00
23574;BME280;11965;53.640;10.050;2023-12-07T00:19:25;101586.41;;;0.33;100.00
23574;BME280;11965;53.640;10.050;2023-12-07T00:21:53;101589.91;;;0.22;100.00
23574;BME280;11965;53.640;10.050;2023-12-07T00:24:19;101588.81;;;0.12;100.00
23574;BME280;11965;53.640;10.050;2023-12-07T00:26:46;101596.88;;;0.26;100.00
23574;BME280;11965;53.640;10.050;2023-12-07T00:29:13;101606.91;;;0.38;100.00
23574;BME280;11965;53.640;10.050;2023-12-07T00:31:40;101598.72;;;0.26;100.00
23574;BME280;11965;53.640;10.050;2023-12-07T00:34:08;101603.88;;;0.17;100.00
23574;BME280;11965;53.640;10.050;2023-12-07T00:36:35;101600.28;;;0.17;100.00
23574;BME280;11965;53.640;10.050;2023-12-07T00:39:03;101607.78;;;0.39;100.00
23574;BME280;11965;53.640;10.050;2023-12-07T00:41:30;101599.28;;;0.43;100.00
23574;BME280;11965;53.640;10.050;2023-12-07T00:43:57;101603.31;;;0.38;100.00
23574;BME280;11965;53.640;10.050;2023-12-07T00:46:24;101609.28;;;0.56;100.00
23574;BME280;11965;53.640;10.050;2023-12-07T00:48:51;101607.88;;;0.50;100.00
23574;BME280;11965;53.640;10.050;2023-12-07T00:51:18;101621.09;;;0.43;100.00
23574;BME280;11965;53.640;10.050;2023-12-07T00:53:45;101612.91;;;0.43;100.00
23574;BME280;11965;53.640;10.050;2023-12-07T00:56:13;101610.41;;;0.40;100.00
23574;BME280;11965;53.640;10.050;2023-12-07T00:58:40;101612.00;;;0.43;100.00
23574;BME280;11965;53.640;10.050;2023-12-07T01:01:07;101613.22;;;0.52;100.00
23574;BME280;11965;53.640;10.050;2023-12-07T01:03:34;101611.69;;;0.48;100.00
23574;BME280;11965;53.640;10.050;2023-12-07T01:06:01;101611.50;;;0.38;100.00
23574;BME280;11965;53.640;10.050;2023-12-07T01:08:28;101605.91;;;0.39;100.00
23574;BME280;11965;53.640;10.050;2023-12-07T01:10:55;101617.59;;;0.41;100.00
23574;BME280;11965;53.640;10.050;2023-12-07T01:13:24;101622.16;;;0.54;100.00
23574;BME280;11965;53.640;10.050;2023-12-07T01:15:51;101627.59;;;0.54;100.00
23574;BME280;11965;53.640;10.050;2023-12-07T01:18:18;101625.22;;;0.62;100.00
23574;BME280;11965;53.640;10.050;2023-12-07T01:20:45;101640.28;;;0.68;100.00
23574;BME280;11965;53.640;10.050;2023-12-07T01:23:16;101640.28;;;0.55;100.00
23574;BME280;11965;53.640;10.050;2023-12-07T01:25:43;101637.47;;;0.43;100.00
23574;BME280;11965;53.640;10.050;2023-12-07T01:28:09;101640.72;;;0.49;100.00
23574;BME280;11965;53.640;10.050;2023-12-07T01:30:38;101647.47;;;0.43;100.00
23574;BME280;11965;53.640;10.050;2023-12-07T01:33:05;101656.84;;;0.26;100.00
23574;BME280;11965;53.640;10.050;2023-12-07T01:35:32;101653.38;;;0.37;100.00
23574;BME280;11965;53.640;10.050;2023-12-07T01:37:59;101650.88;;;0.34;100.00
23574;BME280;11965;53.640;10.050;2023-12-07T01:40:25;101653.47;;;0.48;100.00
23574;BME280;11965;53.640;10.050;2023-12-07T01:42:53;101664.38;;;0.22;100.00
23574;BME280;11965;53.640;10.050;2023-12-07T01:45:20;101658.50;;;0.41;100.00
23574;BME280;11965;53.640;10.050;2023-12-07T01:47:50;101663.84;;;0.56;100.00
23574;BME280;11965;53.640;10.050;2023-12-07T01:50:19;101664.28;;;0.50;100.00
23574;BME280;11965;53.640;10.050;2023-12-07T01:52:54;101660.91;;;0.33;100.00
23574;BME280;11965;53.640;10.050;2023-12-07T01:55:25;101667.78;;;0.52;100.00
23574;BME280;11965;53.640;10.050;2023-12-07T01:57:53;101672.13;;;0.67;100.00
23574;BME280;11965;53.640;10.050;2023-12-07T02:00:20;101665.69;;;0.42;100.00
23574;BME280;11965;53.640;10.050;2023-12-07T02:02:51;101671.47;;;0.25;100.00
23574;BME280;11965;53.640;10.050;2023-12-07T02:05:18;101672.88;;;0.18;100.00
23574;BME280;11965;53.640;10.050;2023-12-07T02:07:45;101671.03;;;0.18;100.00
23574;BME280;11965;53.640;10.050;2023-12-07T02:10:12;101669.38;;;0.16;100.00
23574;BME280;11965;53.640;10.050;2023-12-07T02:12:40;101662.09;;;0.16;100.00
23574;BME280;11965;53.640;10.050;2023-12-07T02:15:08;101666.47;;;0.19;100.00
23574;BME280;11965;53.640;10.050;2023-12-07T02:17:46;101666.13;;;0.24;100.00
23574;BME280;11965;53.640;10.050;2023-12-07T02:20:24;101671.59;;;0.36;100.00
23574;BME280;11965;53.640;10.050;2023-12-07T02:22:55;101663.50;;;0.35;100.00
23574;BME280;11965;53.640;10.050;2023-12-07T02:25:36;101664.06;;;0.27;100.00
23574;BME280;11965;53.640;10.050;2023-12-07T02:28:05;101674.75;;;0.17;100.00
23574;BME280;11965;53.640;10.050;2023-12-07T02:30:32;101676.38;;;0.20;100.00
23574;BME280;11965;53.640;10.050;2023-12-07T02:32:59;101680.28;;;0.16;100.00
23574;BME280;11965;53.640;10.050;2023-12-07T02:35:27;101678.44;;;0.29;100.00
23574;BME280;11965;53.640;10.050;2023-12-07T02:37:55;101681.94;;;0.31;100.00
23574;BME280;11965;53.640;10.050;2023-12-07T02:40:25;101676.47;;;0.18;100.00
23574;BME280;11965;53.640;10.050;2023-12-07T02:42:54;101679.88;;;0.22;100.00
23574;BME280;11965;53.640;10.050;2023-12-07T02:45:23;101679.66;;;0.25;100.00
23574;BME280;11965;53.640;10.050;2023-12-07T02:47:51;101691.22;;;0.41;100.00
23574;BME280;11965;53.640;10.050;2023-12-07T02:50:18;101689.13;;;0.32;100.00
23574;BME280;11965;53.640;10.050;2023-12-07T02:52:45;101690.13;;;0.31;100.00
23574;BME280;11965;53.640;10.050;2023-12-07T02:55:12;101689.34;;;0.29;100.00
23574;BME280;11965;53.640;10.050;2023-12-07T02:57:39;101689.25;;;0.31;100.00
23574;BME280;11965;53.640;10.050;2023-12-07T03:00:07;101692.09;;;0.42;100.00
23574;BME280;11965;53.640;10.050;2023-12-07T03:02:38;101699.41;;;0.41;100.00
23574;BME280;11965;53.640;10.050;2023-12-07T03:05:06;101692.84;;;0.31;100.00
23574;BME280;11965;53.640;10.050;2023-12-07T03:07:34;101698.75;;;0.25;100.00
23574;BME280;11965;53.640;10.050;2023-12-07T03:10:01;101693.72;;;0.19;100.00
23574;BME280;11965;53.640;10.050;2023-12-07T03:12:29;101698.63;;;0.14;100.00
23574;BME280;11965;53.640;10.050;2023-12-07T03:14:56;101696.13;;;0.24;100.00
23574;BME280;11965;53.640;10.050;2023-12-07T03:17:23;101695.81;;;0.28;100.00
23574;BME280;11965;53.640;10.050;2023-12-07T03:19:51;101698.88;;;0.49;100.00
23574;BME280;11965;53.640;10.050;2023-12-07T03:22:18;101699.66;;;0.51;100.00
23574;BME280;11965;53.640;10.050;2023-12-07T03:24:49;101702.59;;;0.35;100.00
23574;BME280;11965;53.640;10.050;2023-12-07T03:27:16;101713.50;;;0.35;100.00
23574;BME280;11965;53.640;10.050;2023-12-07T03:29:43;101709.22;;;0.31;100.00
23574;BME280;11965;53.640;10.050;2023-12-07T03:32:10;101702.25;;;0.40;100.00
23574;BME280;11965;53.640;10.050;2023-12-07T03:34:37;101711.31;;;0.53;100.00
23574;BME280;11965;53.640;10.050;2023-12-07T03:37:05;101700.59;;;0.37;100.00
23574;BME280;11965;53.640;10.050;2023-12-07T03:39:32;101694.81;;;0.29;100.00
23574;BME280;11965;53.640;10.050;2023-12-07T03:41:59;101698.97;;;0.35;100.00
23574;BME280;11965;53.640;10.050;2023-12-07T03:44:26;101707.06;;;0.62;100.00
23574;BME280;11965;53.640;10.050;2023-12-07T03:46:53;101701.03;;;0.70;100.00
23574;BME280;11965;53.640;10.050;2023-12-07T03:49:20;101706.94;;;0.51;100.00
23574;BME280;11965;53.640;10.050;2023-12-07T03:51:47;101710.00;;;0.33;100.00
23574;BME280;11965;53.640;10.050;2023-12-07T03:54:15;101700.47;;;0.26;100.00
23574;BME280;11965;53.640;10.050;2023-12-07T03:56:42;101703.00;;;0.29;100.00
23574;BME280;11965;53.640;10.050;2023-12-07T03:59:09;101703.22;;;0.26;100.00
23574;BME280;11965;53.640;10.050;2023-12-07T04:01:36;101707.16;;;0.48;100.00
23574;BME280;11965;53.640;10.050;2023-12-07T04:04:03;101697.44;;;0.69;100.00
23574;BME280;11965;53.640;10.050;2023-12-07T04:06:30;101703.88;;;0.55;100.00
23574;BME280;11965;53.640;10.050;2023-12-07T04:08:57;101710.63;;;0.37;100.00
23574;BME280;11965;53.640;10.050;2023-12-07T04:11:26;101708.03;;;0.48;100.00
23574;BME280;11965;53.640;10.050;2023-12-07T04:13:53;101709.56;;;0.39;100.00
23574;BME280;11965;53.640;10.050;2023-12-07T04:16:20;101719.84;;;0.49;100.00
23574;BME280;11965;53.640;10.050;2023-12-07T04:18:47;101713.47;;;0.48;100.00
23574;BME280;11965;53.640;10.050;2023-12-07T04:21:14;101711.84;;;0.33;100.00
23574;BME280;11965;53.640;10.050;2023-12-07T04:23:41;101722.00;;;0.43;100.00
23574;BME280;11965;53.640;10.050;2023-12-07T04:26:08;101717.53;;;0.55;100.00
23574;BME280;11965;53.640;10.050;2023-12-07T04:28:37;101717.41;;;0.44;100.00
23574;BME280;11965;53.640;10.050;2023-12-07T04:31:04;101713.50;;;0.35;100.00
23574;BME280;11965;53.640;10.050;2023-12-07T04:33:31;101718.69;;;0.26;100.00
23574;BME280;11965;53.640;10.050;2023-12-07T04:35:58;101713.69;;;0.19;100.00
23574;BME280;11965;53.640;10.050;2023-12-07T04:38:25;101716.41;;;0.32;100.00
23574;BME280;11965;53.640;10.050;2023-12-07T04:40:52;101721.66;;;0.22;100.00
23574;BME280;11965;53.640;10.050;2023-12-07T04:43:19;101716.41;;;0.32;100.00
23574;BME280;11965;53.640;10.050;2023-12-07T04:45:47;101714.13;;;0.26;100.00
23574;BME280;11965;53.640;10.050;2023-12-07T04:48:14;101718.25;;;0.32;100.00
23574;BME280;11965;53.640;10.050;2023-12-07T04:50:41;101721.78;;;0.47;100.00
23574;BME280;11965;53.640;10.050;2023-12-07T04:53:08;101730.28;;;0.42;100.00
23574;BME280;11965;53.640;10.050;2023-12-07T04:55:35;101722.31;;;0.39;100.00
23574;BME280;11965;53.640;10.050;2023-12-07T04:58:02;101736.59;;;0.42;100.00
23574;BME280;11965;53.640;10.050;2023-12-07T05:00:29;101735.66;;;0.43;100.00
23574;BME280;11965;53.640;10.050;2023-12-07T05:02:57;101745.31;;;0.35;100.00
23574;BME280;11965;53.640;10.050;2023-12-07T05:05:24;101746.88;;;0.39;100.00
23574;BME280;11965;53.640;10.050;2023-12-07T05:07:51;101748.97;;;0.61;100.00
23574;BME280;11965;53.640;10.050;2023-12-07T05:10:18;101746.88;;;0.52;100.00
23574;BME280;11965;53.640;10.050;2023-12-07T05:12:45;101747.63;;;0.54;100.00
23574;BME280;11965;53.640;10.050;2023-12-07T05:15:12;101744.16;;;0.64;100.00
23574;BME280;11965;53.640;10.050;2023-12-07T05:17:39;101747.22;;;0.73;100.00
23574;BME280;11965;53.640;10.050;2023-12-07T05:20:09;101749.72;;;0.50;100.00
23574;BME280;11965;53.640;10.050;2023-12-07T05:22:38;101754.75;;;0.43;100.00
23574;BME280;11965;53.640;10.050;2023-12-07T05:25:05;101751.31;;;0.40;100.00
23574;BME280;11965;53.640;10.050;2023-12-07T05:27:33;101754.75;;;0.43;100.00
23574;BME280;11965;53.640;10.050;2023-12-07T05:30:00;101751.91;;;0.58;100.00
23574;BME280;11965;53.640;10.050;2023-12-07T05:32:27;101757.47;;;0.69;100.00
23574;BME280;11965;53.640;10.050;2023-12-07T05:34:54;101750.56;;;0.51;100.00
23574;BME280;11965;53.640;10.050;2023-12-07T05:37:22;101754.75;;;0.43;100.00
23574;BME280;11965;53.640;10.050;2023-12-07T05:39:49;101764.97;;;0.40;100.00
23574;BME280;11965;53.640;10.050;2023-12-07T05:42:16;101760.53;;;0.52;100.00
23574;BME280;11965;53.640;10.050;2023-12-07T05:44:44;101760.88;;;0.73;100.00
23574;BME280;11965;53.640;10.050;2023-12-07T05:47:11;101768.41;;;0.82;100.00
23574;BME280;11965;53.640;10.050;2023-12-07T05:49:38;101763.25;;;0.77;100.00
23574;BME280;11965;53.640;10.050;2023-12-07T05:52:05;101756.28;;;0.73;100.00
23574;BME280;11965;53.640;10.050;2023-12-07T05:54:33;101758.91;;;0.62;100.00
23574;BME280;11965;53.640;10.050;2023-12-07T05:57:00;101760.09;;;0.71;100.00
23574;BME280;11965;53.640;10.050;2023-12-07T05:59:27;101762.72;;;0.72;100.00
23574;BME280;11965;53.640;10.050;2023-12-07T06:01:54;101764.38;;;0.62;100.00
23574;BME280;11965;53.640;10.050;2023-12-07T06:04:22;101754.22;;;0.51;100.00
23574;BME280;11965;53.640;10.050;2023-12-07T06:06:49;101755.84;;;0.66;100.00
23574;BME280;11965;53.640;10.050;2023-12-07T06:09:16;101756.50;;;0.70;100.00
23574;BME280;11965;53.640;10.050;2023-12-07T06:11:45;101759.34;;;0.69;100.00
23574;BME280;11965;53.640;10.050;2023-12-07T06:14:12;101757.13;;;0.61;100.00
23574;BME280;11965;53.640;10.050;2023-12-07T06:16:39;101763.91;;;0.55;100.00
23574;BME280;11965;53.640;10.050;2023-12-07T06:19:06;101764.38;;;0.62;100.00
23574;BME280;11965;53.640;10.050;2023-12-07T06:21:33;101761.28;;;0.66;100.00
23574;BME280;11965;53.640;10.050;2023-12-07T06:24:00;101766.09;;;0.63;100.00
23574;BME280;11965;53.640;10.050;2023-12-07T06:26:27;101771.66;;;0.61;100.00
23574;BME280;11965;53.640;10.050;2023-12-07T06:28:55;101764.91;;;0.54;100.00
23574;BME280;11965;53.640;10.050;2023-12-07T06:31:22;101767.72;;;0.53;100.00
23574;BME280;11965;53.640;10.050;2023-12-07T06:33:49;101771.22;;;0.55;100.00
23574;BME280;11965;53.640;10.050;2023-12-07T06:36:19;101770.75;;;0.48;100.00
23574;BME280;11965;53.640;10.050;2023-12-07T06:38:47;101780.59;;;0.51;100.00
23574;BME280;11965;53.640;10.050;2023-12-07T06:41:14;101779.28;;;0.56;100.00
23574;BME280;11965;53.640;10.050;2023-12-07T06:43:42;101776.69;;;0.55;100.00
23574;BME280;11965;53.640;10.050;2023-12-07T06:46:11;101779.50;;;0.53;100.00
23574;BME280;11965;53.640;10.050;2023-12-07T06:48:38;101787.16;;;0.61;100.00
23574;BME280;11965;53.640;10.050;2023-12-07T06:51:05;101784.72;;;0.56;100.00
23574;BME280;11965;53.640;10.050;2023-12-07T06:53:32;101789.75;;;0.50;100.00
23574;BME280;11965;53.640;10.050;2023-12-07T06:55:59;101792.91;;;0.43;100.00
23574;BME280;11965;53.640;10.050;2023-12-07T06:58:26;101792.72;;;0.47;100.00
23574;BME280;11965;53.640;10.050;2023-12-07T07:00:53;101802.19;;;0.54;100.00
23574;BME280;11965;53.640;10.050;2023-12-07T07:03:21;101802.19;;;0.54;100.00
23574;BME280;11965;53.640;10.050;2023-12-07T07:05:48;101795.00;;;0.53;100.00
23574;BME280;11965;53.640;10.050;2023-12-07T07:08:15;101794.22;;;0.51;100.00
23574;BME280;11965;53.640;10.050;2023-12-07T07:10:44;101796.31;;;0.47;100.00
23574;BME280;11965;53.640;10.050;2023-12-07T07:13:11;101795.22;;;0.50;100.00
23574;BME280;11965;53.640;10.050;2023-12-07T07:15:42;101810.81;;;0.48;100.00
23574;BME280;11965;53.640;10.050;2023-12-07T07:18:09;101812.91;;;0.57;100.00
23574;BME280;11965;53.640;10.050;2023-12-07T07:20:37;101810.06;;;0.58;100.00
23574;BME280;11965;53.640;10.050;2023-12-07T07:23:05;101810.59;;;0.51;100.00
23574;BME280;11965;53.640;10.050;2023-12-07T07:25:33;101813.31;;;0.51;100.00
23574;BME280;11965;53.640;10.050;2023-12-07T07:28:01;101813.31;;;0.51;100.00
23574;BME280;11965;53.640;10.050;2023-12-07T07:30:28;101819.44;;;0.67;100.00
23574;BME280;11965;53.640;10.050;2023-12-07T07:32:55;101816.59;;;0.56;100.00
23574;BME280;11965;53.640;10.050;2023-12-07T07:35:22;101815.81;;;0.54;100.00
23574;BME280;11965;53.640;10.050;2023-12-07T07:37:51;101810.81;;;0.48;100.00
23574;BME280;11965;53.640;10.050;2023-12-07T07:40:18;101806.34;;;0.47;100.00
23574;BME280;11965;53.640;10.050;2023-12-07T07:42:44;101809.72;;;0.50;100.00
23574;BME280;11965;53.640;10.050;2023-12-07T07:45:11;101811.28;;;0.54;100.00
23574;BME280;11965;53.640;10.050;2023-12-07T07:47:38;101810.53;;;0.65;100.00
23574;BME280;11965;53.640;10.050;2023-12-07T07:50:06;101814.00;;;0.67;100.00
23574;BME280;11965;53.640;10.050;2023-12-07T07:52:33;101808.09;;;0.60;100.00
23574;BME280;11965;53.640;10.050;2023-12-07T07:55:03;101821.84;;;0.59;100.00
23574;BME280;11965;53.640;10.050;2023-12-07T07:57:31;101816.94;;;0.64;100.00
23574;BME280;11965;53.640;10.050;2023-12-07T07:59:58;101820.88;;;0.60;100.00
23574;BME280;11965;53.640;10.050;2023-12-07T08:02:25;101832.59;;;0.87;100.00
23574;BME280;11965;53.640;10.050;2023-12-07T08:04:52;101832.28;;;1.05;100.00
23574;BME280;11965;53.640;10.050;2023-12-07T08:07:19;101840.25;;;0.95;100.00
23574;BME280;11965;53.640;10.050;2023-12-07T08:09:46;101836.75;;;1.06;100.00
23574;BME280;11965;53.640;10.050;2023-12-07T08:12:14;101837.53;;;0.95;100.00
23574;BME280;11965;53.640;10.050;2023-12-07T08:14:41;101841.09;;;0.83;100.00
23574;BME280;11965;53.640;10.050;2023-12-07T08:17:10;101837.81;;;0.78;100.00
23574;BME280;11965;53.640;10.050;2023-12-07T08:19:38;101840.75;;;0.75;100.00
23574;BME280;11965;53.640;10.050;2023-12-07T08:22:05;101850.50;;;0.79;100.00
23574;BME280;11965;53.640;10.050;2023-12-07T08:24:32;101846.91;;;0.78;100.00
23574;BME280;11965;53.640;10.050;2023-12-07T08:26:59;101847.44;;;0.83;100.00
23574;BME280;11965;53.640;10.050;2023-12-07T08:29:27;101856.63;;;0.95;100.00
23574;BME280;11965;53.640;10.050;2023-12-07T08:31:54;101847.00;;;0.90;100.00
23574;BME280;11965;53.640;10.050;2023-12-07T08:34:21;101846.78;;;0.93;100.00
23574;BME280;11965;53.640;10.050;2023-12-07T08:36:49;101856.19;;;1.01;100.00
23574;BME280;11965;53.640;10.050;2023-12-07T08:39:16;101856.97;;;1.03;100.00
23574;BME280;11965;53.640;10.050;2023-12-07T08:41:43;101857.28;;;0.99;100.00
23574;BME280;11965;53.640;10.050;2023-12-07T08:44:10;101854.66;;;1.10;100.00
23574;BME280;11965;53.640;10.050;2023-12-07T08:46:38;101851.81;;;1.12;100.00
23574;BME280;11965;53.640;10.050;2023-12-07T08:49:05;101851.72;;;1.26;100.00
23574;BME280;11965;53.640;10.050;2023-12-07T08:51:32;101851.16;;;1.21;100.00
23574;BME280;11965;53.640;10.050;2023-12-07T08:53:59;101857.72;;;1.31;100.00
23574;BME280;11965;53.640;10.050;2023-12-07T08:56:26;101859.44;;;1.45;100.00
23574;BME280;11965;53.640;10.050;2023-12-07T08:58:53;101844.38;;;1.52;100.00
23574;BME280;11965;53.640;10.050;2023-12-07T09:01:20;101839.78;;;1.52;100.00
23574;BME280;11965;53.640;10.050;2023-12-07T09:03:48;101838.44;;;1.71;100.00
23574;BME280;11965;53.640;10.050;2023-12-07T09:06:15;101842.97;;;1.46;100.00
23574;BME280;11965;53.640;10.050;2023-12-07T09:08:42;101843.91;;;1.58;100.00
23574;BME280;11965;53.640;10.050;2023-12-07T09:11:09;101837.66;;;1.69;100.00
23574;BME280;11965;53.640;10.050;2023-12-07T09:13:37;101847.97;;;1.65;100.00
23574;BME280;11965;53.640;10.050;2023-12-07T09:16:05;101854.69;;;1.85;100.00
23574;BME280;11965;53.640;10.050;2023-12-07T09:18:33;101853.28;;;1.80;100.00
23574;BME280;11965;53.640;10.050;2023-12-07T09:21:02;101856.47;;;1.61;100.00
23574;BME280;11965;53.640;10.050;2023-12-07T09:23:30;101850.94;;;1.49;100.00
23574;BME280;11965;53.640;10.050;2023-12-07T09:25:58;101846.41;;;1.61;100.00
23574;BME280;11965;53.640;10.050;2023-12-07T09:28:24;101849.81;;;1.77;100.00
23574;BME280;11965;53.640;10.050;2023-12-07T09:30:51;101849.50;;;1.93;100.00
23574;BME280;11965;53.640;10.050;2023-12-07T09:33:18;101853.78;;;1.97;100.00
23574;BME280;11965;53.640;10.050;2023-12-07T09:35:45;101853.88;;;1.96;100.00
23574;BME280;11965;53.640;10.050;2023-12-07T09:38:14;101854.28;;;1.66;100.00
23574;BME280;11965;53.640;10.050;2023-12-07T09:40:42;101857.81;;;1.55;100.00
23574;BME280;11965;53.640;10.050;2023-12-07T09:43:09;101862.25;;;1.69;100.00
23574;BME280;11965;53.640;10.050;2023-12-07T09:45:36;101858.88;;;1.65;100.00
23574;BME280;11965;53.640;10.050;2023-12-07T09:48:04;101864.50;;;1.88;100.00
23574;BME280;11965;53.640;10.050;2023-12-07T09:50:31;101855.28;;;1.77;100.00
23574;BME280;11965;53.640;10.050;2023-12-07T09:52:58;101860.75;;;1.77;100.00
23574;BME280;11965;53.640;10.050;2023-12-07T09:55:27;101853.50;;;1.76;100.00
23574;BME280;11965;53.640;10.050;2023-12-07T09:57:56;101854.81;;;1.71;100.00
23574;BME280;11965;53.640;10.050;2023-12-07T10:00:23;101855.69;;;1.84;100.00
23574;BME280;11965;53.640;10.050;2023-12-07T10:02:51;101857.41;;;1.85;100.00
23574;BME280;11965;53.640;10.050;2023-12-07T10:05:18;101858.75;;;1.80;100.00
23574;BME280;11965;53.640;10.050;2023-12-07T10:07:46;101859.50;;;2.18;100.00
23574;BME280;11965;53.640;10.050;2023-12-07T10:10:16;101855.72;;;2.32;100.00
23574;BME280;11965;53.640;10.050;2023-12-07T10:12:51;101857.97;;;2.38;100.00
23574;BME280;11965;53.640;10.050;2023-12-07T10:15:20;101859.00;;;2.37;100.00
23574;BME280;11965;53.640;10.050;2023-12-07T10:17:49;101868.81;;;2.40;100.00
23574;BME280;11965;53.640;10.050;2023-12-07T10:20:18;101876.50;;;2.59;100.00
23574;BME280;11965;53.640;10.050;2023-12-07T10:22:49;101876.97;;;2.77;100.00
23574;BME280;11965;53.640;10.050;2023-12-07T10:25:28;101867.06;;;2.98;100.00
23574;BME280;11965;53.640;10.050;2023-12-07T10:27:57;101864.78;;;2.92;100.00
23574;BME280;11965;53.640;10.050;2023-12-07T10:30:24;101861.47;;;3.00;100.00
23574;BME280;11965;53.640;10.050;2023-12-07T10:32:51;101856.50;;;3.05;100.00
23574;BME280;11965;53.640;10.050;2023-12-07T10:35:19;101867.56;;;3.03;100.00
23574;BME280;11965;53.640;10.050;2023-12-07T10:37:46;101864.22;;;3.11;100.00
23574;BME280;11965;53.640;10.050;2023-12-07T10:40:14;101858.28;;;3.28;100.00
23574;BME280;11965;53.640;10.050;2023-12-07T10:42:42;101855.16;;;3.33;100.00
23574;BME280;11965;53.640;10.050;2023-12-07T10:45:15;101857.25;;;3.07;100.00
23574;BME280;11965;53.640;10.050;2023-12-07T10:47:44;101859.31;;;2.92;100.00
23574;BME280;11965;53.640;10.050;2023-12-07T10:50:16;101861.22;;;3.03;100.00
23574;BME280;11965;53.640;10.050;2023-12-07T10:52:52;101867.44;;;3.05;100.00
23574;BME280;11965;53.640;10.050;2023-12-07T10:55:22;101864.59;;;3.06;100.00
23574;BME280;11965;53.640;10.050;2023-12-07T10:57:52;101863.81;;;2.93;100.00
23574;BME280;11965;53.640;10.050;2023-12-07T11:00:22;101872.38;;;2.88;100.00
23574;BME280;11965;53.640;10.050;2023-12-07T11:02:50;101858.41;;;3.27;100.00
23574;BME280;11965;53.640;10.050;2023-12-07T11:05:19;101869.09;;;3.30;100.00
23574;BME280;11965;53.640;10.050;2023-12-07T11:07:52;101850.66;;;3.09;100.00
23574;BME280;11965;53.640;10.050;2023-12-07T11:10:29;101856.25;;;3.08;100.00
23574;BME280;11965;53.640;10.050;2023-12-07T11:13:07;101854.91;;;3.25;100.00
23574;BME280;11965;53.640;10.050;2023-12-07T11:15:37;101857.69;;;3.47;100.00
23574;BME280;11965;53.640;10.050;2023-12-07T11:18:05;101858.66;;;3.35;100.00
23574;BME280;11965;53.640;10.050;2023-12-07T11:20:40;101858.41;;;3.27;100.00
23574;BME280;11965;53.640;10.050;2023-12-07T11:23:07;101853.38;;;2.98;100.00
23574;BME280;11965;53.640;10.050;2023-12-07T11:25:35;101850.47;;;2.88;100.00
23574;BME280;11965;53.640;10.050;2023-12-07T11:28:03;101861.50;;;2.76;100.00
23574;BME280;11965;53.640;10.050;2023-12-07T11:30:34;101850.88;;;2.36;100.00
23574;BME280;11965;53.640;10.050;2023-12-07T11:33:04;101848.09;;;2.25;100.00
23574;BME280;11965;53.640;10.050;2023-12-07T11:35:31;101849.66;;;2.64;100.00
23574;BME280;11965;53.640;10.050;2023-12-07T11:38:06;101849.66;;;2.64;100.00
23574;BME280;11965;53.640;10.050;2023-12-07T11:40:36;101843.59;;;2.72;100.00
23574;BME280;11965;53.640;10.050;2023-12-07T11:43:03;101846.72;;;2.90;100.00
23574;BME280;11965;53.640;10.050;2023-12-07T11:45:41;101845.69;;;2.79;100.00
23574;BME280;11965;53.640;10.050;2023-12-07T11:48:13;101850.31;;;2.79;100.00
23574;BME280;11965;53.640;10.050;2023-12-07T11:51:00;101851.63;;;2.62;100.00
23574;BME280;11965;53.640;10.050;2023-12-07T11:53:30;101849.13;;;2.94;100.00
23574;BME280;11965;53.640;10.050;2023-12-07T11:55:57;101851.84;;;2.94;100.00
23574;BME280;11965;53.640;10.050;2023-12-07T11:58:25;101846.53;;;2.69;100.00
23574;BME280;11965;53.640;10.050;2023-12-07T12:00:53;101850.63;;;2.63;100.00
23574;BME280;11965;53.640;10.050;2023-12-07T12:03:21;101849.22;;;2.93;100.00
23574;BME280;11965;53.640;10.050;2023-12-07T12:05:48;101842.00;;;2.92;100.00
23574;BME280;11965;53.640;10.050;2023-12-07T12:08:16;101847.50;;;2.92;100.00
23574;BME280;11965;53.640;10.050;2023-12-07T12:10:45;101850.25;;;2.56;100.00
23574;BME280;11965;53.640;10.050;2023-12-07T12:13:12;101841.03;;;2.33;100.00
23574;BME280;11965;53.640;10.050;2023-12-07T12:15:40;101837.44;;;2.57;100.00
23574;BME280;11965;53.640;10.050;2023-12-07T12:18:08;101831.19;;;2.31;100.00
23574;BME280;11965;53.640;10.050;2023-12-07T12:20:37;101829.91;;;2.12;100.00
23574;BME280;11965;53.640;10.050;2023-12-07T12:23:04;101829.47;;;2.06;100.00
23574;BME280;11965;53.640;10.050;2023-12-07T12:25:32;101827.06;;;2.25;100.00
23574;BME280;11965;53.640;10.050;2023-12-07T12:28:02;101822.66;;;2.35;100.00
23574;BME280;11965;53.640;10.050;2023-12-07T12:30:30;101809.94;;;2.23;100.00
23574;BME280;11965;53.640;10.050;2023-12-07T12:32:57;101815.84;;;2.17;100.00
23574;BME280;11965;53.640;10.050;2023-12-07T12:35:25;101820.56;;;2.15;100.00
23574;BME280;11965;53.640;10.050;2023-12-07T12:37:54;101812.94;;;2.31;100.00
23574;BME280;11965;53.640;10.050;2023-12-07T12:40:23;101811.84;;;2.34;100.00
23574;BME280;11965;53.640;10.050;2023-12-07T12:42:52;101805.78;;;2.17;100.00
23574;BME280;11965;53.640;10.050;2023-12-07T12:45:19;101810.63;;;2.14;100.00